createdAt,value
2023-02-04T00:02:23.128Z,49.93
2023-02-04T00:05:13.207Z,48.13
2023-02-04T00:08:01.608Z,49.87
2023-02-04T00:10:50.046Z,54.77
2023-02-04T00:13:38.745Z,50.30
2023-02-04T00:16:28.631Z,53.80
2023-02-04T00:19:17.565Z,50.30
2023-02-04T00:22:07.100Z,52.77
2023-02-04T00:24:55.532Z,49.33
2023-02-04T00:27:44.011Z,59.37
2023-02-04T00:30:32.690Z,55.63
2023-02-04T00:33:22.696Z,49.13
2023-02-04T00:36:11.375Z,56.73
2023-02-04T00:38:59.811Z,54.93
2023-02-04T00:41:48.602Z,50.73
2023-02-04T00:44:37.533Z,52.10
2023-02-04T00:47:26.001Z,48.40
2023-02-04T00:50:15.997Z,46.73
2023-02-04T00:53:05.296Z,54.37
2023-02-04T00:55:53.743Z,56.33
2023-02-04T00:58:42.495Z,58.13
2023-02-04T01:01:31.561Z,46.90
2023-02-04T01:04:21.220Z,53.93
2023-02-04T01:07:11.059Z,45.47
2023-02-04T01:09:59.547Z,58.23
2023-02-04T01:12:48.001Z,56.47
2023-02-04T01:15:36.896Z,49.53
2023-02-04T01:18:25.495Z,48.63
2023-02-04T01:21:14.129Z,51.03
2023-02-04T01:24:03.938Z,49.50
2023-02-04T01:26:52.387Z,50.17
2023-02-04T01:29:40.882Z,46.57
2023-02-04T01:32:29.355Z,48.20
2023-02-04T01:35:18.016Z,49.87
2023-02-04T01:38:06.417Z,44.20
2023-02-04T01:40:56.402Z,47.37
2023-02-04T01:43:44.931Z,45.27
2023-02-04T01:46:34.405Z,46.20
2023-02-04T01:49:23.135Z,44.47
2023-02-04T01:52:12.637Z,40.37
2023-02-04T01:55:01.114Z,57.80
2023-02-04T01:57:53.061Z,48.77
2023-02-04T02:00:42.126Z,47.07
2023-02-04T02:03:30.525Z,47.70
2023-02-04T02:06:19.672Z,48.40
2023-02-04T02:09:08.158Z,49.83
2023-02-04T02:11:56.622Z,47.73
2023-02-04T02:14:46.501Z,48.57
2023-02-04T02:17:35.103Z,49.20
2023-02-04T02:20:25.997Z,49.07
2023-02-04T02:23:22.148Z,48.40
2023-02-04T02:26:12.118Z,48.90
2023-02-04T02:29:00.538Z,48.47
2023-02-04T02:31:49.050Z,47.90
2023-02-04T02:34:39.333Z,44.70
2023-02-04T02:37:27.986Z,48.53
2023-02-04T02:40:16.564Z,42.00
2023-02-04T02:43:07.494Z,48.33
2023-02-04T02:45:57.872Z,41.37
2023-02-04T02:48:46.775Z,38.23
2023-02-04T02:51:35.202Z,47.37
2023-02-04T02:54:25.960Z,47.13
2023-02-04T02:57:16.827Z,47.13
2023-02-04T03:00:16.032Z,44.10
2023-02-04T03:03:09.712Z,42.53
2023-02-04T03:06:01.133Z,44.87
2023-02-04T03:08:51.292Z,40.40
2023-02-04T03:11:39.981Z,39.60
2023-02-04T03:14:29.100Z,39.67
2023-02-04T03:17:19.142Z,40.13
2023-02-04T03:20:08.932Z,41.33
2023-02-04T03:22:58.033Z,44.07
2023-02-04T03:25:46.636Z,41.57
2023-02-04T03:28:40.287Z,44.93
2023-02-04T03:31:28.886Z,41.27
2023-02-04T03:34:18.745Z,37.40
2023-02-04T03:37:07.197Z,39.90
2023-02-04T03:39:55.640Z,39.93
2023-02-04T03:42:44.229Z,33.13
2023-02-04T03:45:44.582Z,39.27
2023-02-04T03:48:33.678Z,41.60
2023-02-04T03:51:23.573Z,39.27
2023-02-04T03:54:11.996Z,45.63
2023-02-04T03:57:00.501Z,33.93
2023-02-04T03:59:48.962Z,40.77
2023-02-04T04:02:37.468Z,42.70
2023-02-04T04:05:26.526Z,34.20
2023-02-04T04:08:16.416Z,47.03
2023-02-04T04:11:05.002Z,34.97
2023-02-04T04:13:53.631Z,40.00
2023-02-04T04:16:42.082Z,41.50
2023-02-04T04:19:31.845Z,38.03
2023-02-04T04:22:20.336Z,42.30
2023-02-04T04:25:10.492Z,44.97
2023-02-04T04:27:58.950Z,42.00
2023-02-04T04:30:47.604Z,36.63
2023-02-04T04:33:36.089Z,41.20
2023-02-04T04:36:27.118Z,38.03
2023-02-04T04:39:15.585Z,36.53
2023-02-04T04:42:05.453Z,34.57
2023-02-04T04:44:53.897Z,39.43
2023-02-04T04:47:42.349Z,35.43
2023-02-04T04:50:31.157Z,37.23
2023-02-04T04:53:19.734Z,39.60
2023-02-04T04:56:08.488Z,28.23
2023-02-04T04:58:58.313Z,37.47
2023-02-04T05:01:46.861Z,30.20
2023-02-04T05:04:35.405Z,30.93
2023-02-04T05:07:23.905Z,30.00
2023-02-04T05:10:12.472Z,33.50
2023-02-04T05:13:00.975Z,35.20
2023-02-04T05:15:50.854Z,38.30
2023-02-04T05:18:39.364Z,37.47
2023-02-04T05:21:27.907Z,26.23
2023-02-04T05:24:16.428Z,33.10
2023-02-04T05:27:04.978Z,33.03
2023-02-04T05:29:53.388Z,27.20
2023-02-04T05:32:43.417Z,29.33
2023-02-04T05:35:31.849Z,30.50
2023-02-04T05:38:20.317Z,27.37
2023-02-04T05:41:08.732Z,27.63
2023-02-04T05:43:57.117Z,30.13
2023-02-04T05:46:45.541Z,27.03
2023-02-04T05:49:35.311Z,28.57
2023-02-04T05:52:23.710Z,26.50
2023-02-04T05:55:13.771Z,28.67
2023-02-04T05:58:02.262Z,25.50
2023-02-04T06:00:50.664Z,29.03
2023-02-04T06:03:39.289Z,33.70
2023-02-04T06:06:29.138Z,35.10
2023-02-04T06:09:17.587Z,31.20
2023-02-04T06:12:06.525Z,29.60
2023-02-04T06:14:55.995Z,30.07
2023-02-04T06:17:44.469Z,37.17
2023-02-04T06:20:33.118Z,31.27
2023-02-04T06:23:23.129Z,30.27
2023-02-04T06:26:11.563Z,30.03
2023-02-04T06:28:59.968Z,29.93
2023-02-04T06:31:49.584Z,24.23
2023-02-04T06:34:38.108Z,34.37
2023-02-04T06:37:26.564Z,26.17
2023-02-04T06:40:16.491Z,27.23
2023-02-04T06:43:05.094Z,27.40
2023-02-04T06:45:53.580Z,31.30
2023-02-04T06:48:42.047Z,29.17
2023-02-04T06:51:30.517Z,49.77
2023-02-04T06:54:19.046Z,105.57
2023-02-04T06:57:09.009Z,50.23
2023-02-04T06:59:57.403Z,48.60
2023-02-04T07:02:46.179Z,44.33
2023-02-04T07:05:35.201Z,32.90
2023-02-04T07:08:23.786Z,34.67
2023-02-04T07:11:12.201Z,31.10
2023-02-04T07:14:02.040Z,27.60
2023-02-04T07:16:50.458Z,26.43
2023-02-04T07:19:39.101Z,31.60
2023-02-04T07:22:27.577Z,29.13
2023-02-04T07:25:17.903Z,31.13
2023-02-04T07:28:06.781Z,34.70
2023-02-04T07:30:56.882Z,33.80
2023-02-04T07:33:45.386Z,26.50
2023-02-04T07:36:34.145Z,27.70
2023-02-04T07:39:22.581Z,31.83
2023-02-04T07:42:11.051Z,31.52
2023-02-04T07:44:59.499Z,121.73
2023-02-04T07:47:49.421Z,40.73
2023-02-04T07:50:38.150Z,30.37
2023-02-04T07:53:26.593Z,29.60
2023-02-04T07:56:15.043Z,27.47
2023-02-04T07:59:03.506Z,23.57
2023-02-04T08:01:51.966Z,23.63
2023-02-04T08:04:41.773Z,24.23
2023-02-04T08:07:30.230Z,23.07
2023-02-04T08:10:19.045Z,25.83
2023-02-04T08:13:07.476Z,21.17
2023-02-04T08:15:55.989Z,24.30
2023-02-04T08:18:44.569Z,23.50
2023-02-04T08:21:34.418Z,17.17
2023-02-04T08:24:22.944Z,19.27
2023-02-04T08:27:11.437Z,18.50
2023-02-04T08:29:59.927Z,20.57
2023-02-04T08:32:48.376Z,18.93
2023-02-04T08:35:36.881Z,19.13
2023-02-04T08:38:26.715Z,19.50
2023-02-04T08:41:15.366Z,15.17
2023-02-04T08:44:03.796Z,23.43
2023-02-04T08:46:52.481Z,18.30
2023-02-04T08:49:41.107Z,14.57
2023-02-04T08:52:29.980Z,19.77
2023-02-04T08:55:19.903Z,16.77
2023-02-04T08:58:08.387Z,15.73
2023-02-04T09:00:56.860Z,20.63
2023-02-04T09:03:45.331Z,18.20
2023-02-04T09:06:33.801Z,25.50
2023-02-04T09:09:23.332Z,17.43
2023-02-04T09:12:13.760Z,25.47
2023-02-04T09:15:02.263Z,21.53
2023-02-04T09:17:50.722Z,18.67
2023-02-04T09:20:39.287Z,23.52
2023-02-04T09:23:27.825Z,20.63
2023-02-04T09:26:16.494Z,17.10
2023-02-04T09:29:06.366Z,18.20
2023-02-04T09:31:54.849Z,17.63
2023-02-04T09:34:43.322Z,16.65
2023-02-04T09:37:31.792Z,19.50
2023-02-04T09:40:21.120Z,17.95
2023-02-04T09:43:14.856Z,19.45
2023-02-04T09:46:05.252Z,22.75
2023-02-04T09:48:53.799Z,16.20
2023-02-04T09:51:44.014Z,15.43
2023-02-04T09:54:32.739Z,15.55
2023-02-04T09:57:21.983Z,13.32
2023-02-04T10:00:17.520Z,13.70
2023-02-04T10:03:15.493Z,20.27
2023-02-04T10:06:04.172Z,15.13
2023-02-04T10:08:53.387Z,38.00
2023-02-04T10:11:43.809Z,34.05
2023-02-04T10:14:32.214Z,23.23
2023-02-04T10:17:23.507Z,18.00
2023-02-04T10:20:18.159Z,23.58
2023-02-04T10:23:12.688Z,18.92
2023-02-04T10:26:01.353Z,18.65
2023-02-04T10:28:50.573Z,15.85
2023-02-04T10:31:40.980Z,15.73
2023-02-04T10:34:35.457Z,16.25
2023-02-04T10:37:25.400Z,22.13
2023-02-04T10:40:31.443Z,18.02
2023-02-04T10:43:23.429Z,21.23
2023-02-04T10:46:11.985Z,17.70
2023-02-04T10:49:00.699Z,16.00
2023-02-04T10:51:50.576Z,15.13
2023-02-04T10:54:40.574Z,15.52
2023-02-04T10:57:30.869Z,15.57
2023-02-04T11:00:21.634Z,15.38
2023-02-04T11:03:14.396Z,9.38
2023-02-04T11:06:03.446Z,16.75
2023-02-04T11:08:54.616Z,20.45
2023-02-04T11:11:48.946Z,20.48
2023-02-04T11:14:37.405Z,11.70
2023-02-04T11:17:31.793Z,15.02
2023-02-04T11:20:33.856Z,14.68
2023-02-04T11:23:36.246Z,15.55
2023-02-04T11:26:35.237Z,9.23
2023-02-04T11:29:34.806Z,11.60
2023-02-04T11:32:32.247Z,11.50
2023-02-04T11:35:27.527Z,12.13
2023-02-04T11:38:34.140Z,12.57
2023-02-04T11:41:31.719Z,12.73
2023-02-04T11:44:22.060Z,12.90
2023-02-04T11:47:12.008Z,11.77
2023-02-04T11:50:05.666Z,8.93
2023-02-04T11:52:56.165Z,12.63
2023-02-04T11:55:47.671Z,10.10
2023-02-04T11:58:40.060Z,11.85
2023-02-04T12:01:33.256Z,12.77
2023-02-04T12:04:26.263Z,11.98
2023-02-04T12:07:21.984Z,11.13
2023-02-04T12:10:16.588Z,10.88
2023-02-04T12:13:14.835Z,11.95
2023-02-04T12:16:05.782Z,13.15
2023-02-04T12:18:55.000Z,13.43
2023-02-04T12:21:44.902Z,14.15
2023-02-04T12:24:33.312Z,13.30
2023-02-04T12:27:22.483Z,11.27
2023-02-04T12:30:12.701Z,13.15
2023-02-04T12:33:01.240Z,14.70
2023-02-04T12:35:50.054Z,11.60
2023-02-04T12:38:40.572Z,12.43
2023-02-04T12:41:29.032Z,12.30
2023-02-04T12:44:17.509Z,12.43
2023-02-04T12:47:06.425Z,12.10
2023-02-04T12:49:54.892Z,13.27
2023-02-04T12:52:43.506Z,11.82
2023-02-04T12:55:33.880Z,13.80
2023-02-04T12:58:22.876Z,16.88
2023-02-04T13:01:11.347Z,11.02
2023-02-04T13:03:59.833Z,9.52
2023-02-04T13:06:48.395Z,13.98
2023-02-04T13:09:37.110Z,14.63
2023-02-04T13:12:27.250Z,15.75
2023-02-04T13:15:15.725Z,13.60
2023-02-04T13:18:04.265Z,14.35
2023-02-04T13:20:52.645Z,12.60
2023-02-04T13:23:40.991Z,15.73
2023-02-04T13:26:29.511Z,12.88
2023-02-04T13:29:20.028Z,14.25
2023-02-04T13:32:09.542Z,15.40
2023-02-04T13:34:58.007Z,17.08
2023-02-04T13:37:46.599Z,16.08
2023-02-04T13:40:35.030Z,12.65
2023-02-04T13:43:23.714Z,14.73
2023-02-04T13:46:13.619Z,14.43
2023-02-04T13:49:02.134Z,16.02
2023-02-04T13:51:50.562Z,18.83
2023-02-04T13:54:39.033Z,19.90
2023-02-04T13:57:27.483Z,16.80
2023-02-04T14:00:16.657Z,18.48
2023-02-04T14:03:06.522Z,15.48
2023-02-04T14:05:55.556Z,11.15
2023-02-04T14:08:44.026Z,13.90
2023-02-04T14:11:32.460Z,14.35
2023-02-04T14:14:20.877Z,13.20
2023-02-04T14:17:09.300Z,16.70
2023-02-04T14:19:59.128Z,15.68
2023-02-04T14:22:47.610Z,16.40
2023-02-04T14:25:36.273Z,17.45
2023-02-04T14:28:24.818Z,12.90
2023-02-04T14:31:13.481Z,12.60
2023-02-04T14:34:02.095Z,11.73
2023-02-04T14:36:51.889Z,16.38
2023-02-04T14:39:40.385Z,15.75
2023-02-04T14:42:28.851Z,12.77
2023-02-04T14:45:17.596Z,13.43
2023-02-04T14:48:06.434Z,11.75
2023-02-04T14:50:54.860Z,15.40
2023-02-04T14:53:48.320Z,14.40
2023-02-04T14:56:37.272Z,14.15
2023-02-04T14:59:25.775Z,14.68
2023-02-04T15:02:16.034Z,15.23
2023-02-04T15:05:04.621Z,15.30
2023-02-04T15:07:53.004Z,13.88
2023-02-04T15:10:43.130Z,14.75
2023-02-04T15:13:31.847Z,14.73
2023-02-04T15:16:20.375Z,18.08
2023-02-04T15:19:09.113Z,12.80
2023-02-04T15:21:57.615Z,14.38
2023-02-04T15:24:46.096Z,12.18
2023-02-04T15:27:35.987Z,14.05
2023-02-04T15:30:24.476Z,14.73
2023-02-04T15:33:13.945Z,18.08
2023-02-04T15:36:02.415Z,14.63
2023-02-04T15:38:51.016Z,12.25
2023-02-04T15:41:39.452Z,16.35
2023-02-04T15:44:29.281Z,11.73
2023-02-04T15:47:19.742Z,12.75
2023-02-04T15:50:10.982Z,15.18
2023-02-04T15:52:59.748Z,19.45
2023-02-04T15:55:48.226Z,13.77
2023-02-04T15:58:36.863Z,15.27
2023-02-04T16:01:26.760Z,20.85
2023-02-04T16:04:15.244Z,14.40
2023-02-04T16:07:08.017Z,16.20
2023-02-04T16:09:56.431Z,18.88
2023-02-04T16:12:44.937Z,17.83
2023-02-04T16:15:33.838Z,13.90
2023-02-04T16:18:24.744Z,17.50
2023-02-04T16:21:13.148Z,21.17
2023-02-04T16:24:01.551Z,27.77
2023-02-04T16:26:50.032Z,21.05
2023-02-04T16:29:38.525Z,18.80
2023-02-04T16:32:27.313Z,22.10
2023-02-04T16:35:17.478Z,22.58
2023-02-04T16:38:05.925Z,21.13
2023-02-04T16:40:54.348Z,19.80
2023-02-04T16:43:42.798Z,23.42
2023-02-04T16:46:33.716Z,25.83
2023-02-04T16:49:23.262Z,31.27
2023-02-04T16:52:13.133Z,43.92
2023-02-04T16:55:01.534Z,53.38
2023-02-04T16:57:50.248Z,91.05
2023-02-04T17:00:41.991Z,114.15
2023-02-04T17:03:30.474Z,116.93
2023-02-04T17:06:18.887Z,123.00
2023-02-04T17:09:09.322Z,139.80
2023-02-04T17:11:57.777Z,129.57
2023-02-04T17:14:46.203Z,131.53
2023-02-04T17:17:34.655Z,127.03
2023-02-04T17:20:24.500Z,122.83
2023-02-04T17:23:13.014Z,120.78
2023-02-04T17:26:02.892Z,126.30
2023-02-04T17:28:51.789Z,132.70
2023-02-04T17:31:42.821Z,122.47
2023-02-04T17:34:31.280Z,127.70
2023-02-04T17:37:19.752Z,128.23
2023-02-04T17:40:12.763Z,129.53
2023-02-04T17:43:02.569Z,128.33
2023-02-04T17:45:51.254Z,126.90
2023-02-04T17:48:39.998Z,126.30
2023-02-04T17:51:28.443Z,137.80
2023-02-04T17:54:16.876Z,132.90
2023-02-04T17:57:17.738Z,119.40
2023-02-04T18:00:14.648Z,122.33
2023-02-04T18:03:03.212Z,126.80
2023-02-04T18:05:54.335Z,121.07
2023-02-04T18:08:42.811Z,126.60
2023-02-04T18:11:36.608Z,120.37
2023-02-04T18:14:28.495Z,124.07
2023-02-04T18:17:18.350Z,127.93
2023-02-04T18:20:18.616Z,141.13
2023-02-04T18:23:13.647Z,138.90
2023-02-04T18:26:12.426Z,142.80
2023-02-04T18:29:01.085Z,132.57
2023-02-04T18:31:53.698Z,130.93
2023-02-04T18:34:46.830Z,134.37
2023-02-04T18:37:36.539Z,131.60
2023-02-04T18:40:26.652Z,136.10
2023-02-04T18:43:27.374Z,124.70
2023-02-04T18:46:24.205Z,134.20
2023-02-04T18:49:22.653Z,131.30
2023-02-04T18:52:19.245Z,144.03
2023-02-04T18:55:22.976Z,145.63
2023-02-04T18:58:28.542Z,149.63
2023-02-04T19:01:23.857Z,151.53
2023-02-04T19:04:20.015Z,144.67
2023-02-04T19:07:16.969Z,155.30
2023-02-04T19:10:27.944Z,157.83
2023-02-04T19:13:21.514Z,160.93
2023-02-04T19:16:25.079Z,166.60
2023-02-04T19:19:35.779Z,153.57
2023-02-04T19:22:33.721Z,163.67
2023-02-04T19:25:29.028Z,160.87
2023-02-04T19:28:29.352Z,168.07
2023-02-04T19:31:18.061Z,166.03
2023-02-04T19:34:23.084Z,168.10
2023-02-04T19:37:19.699Z,174.07
2023-02-04T19:40:27.913Z,172.27
2023-02-04T19:43:22.432Z,171.07
2023-02-04T19:46:21.488Z,181.57
2023-02-04T19:49:22.085Z,173.17
2023-02-04T19:52:25.444Z,165.40
2023-02-04T19:55:42.766Z,170.43
2023-02-04T19:58:42.558Z,185.00
2023-02-04T20:01:31.524Z,171.90
2023-02-04T20:04:21.818Z,167.07
2023-02-04T20:07:20.359Z,175.27
2023-02-04T20:10:25.401Z,169.27
2023-02-04T20:13:20.710Z,160.07
2023-02-04T20:16:36.104Z,162.47
2023-02-04T20:19:28.873Z,159.67
2023-02-04T20:22:42.827Z,160.03
2023-02-04T20:25:41.285Z,157.13
2023-02-04T20:28:49.016Z,164.50
2023-02-04T20:31:40.879Z,157.50
2023-02-04T20:34:29.328Z,157.50
2023-02-04T20:37:24.434Z,162.47
2023-02-04T20:40:21.246Z,163.00
2023-02-04T20:43:15.385Z,165.57
2023-02-04T20:46:09.020Z,157.67
2023-02-04T20:48:57.833Z,157.23
2023-02-04T20:51:46.299Z,147.50
2023-02-04T20:54:34.732Z,158.47
2023-02-04T20:57:23.141Z,160.60
2023-02-04T21:00:15.713Z,142.77
2023-02-04T21:03:19.866Z,151.60
2023-02-04T21:06:21.744Z,146.73
2023-02-04T21:09:22.428Z,139.97
2023-02-04T21:12:11.332Z,141.33
2023-02-04T21:14:59.816Z,148.97
2023-02-04T21:17:48.259Z,135.17
2023-02-04T21:20:38.143Z,146.97
2023-02-04T21:23:26.612Z,130.47
2023-02-04T21:26:15.107Z,136.13
2023-02-04T21:29:03.763Z,132.20
2023-02-04T21:31:52.786Z,125.17
2023-02-04T21:34:41.340Z,129.60
2023-02-04T21:37:31.210Z,125.43
2023-02-04T21:40:21.984Z,129.63
2023-02-04T21:43:10.497Z,125.10
2023-02-04T21:46:00.444Z,120.63
2023-02-04T21:48:49.064Z,124.60
2023-02-04T21:51:37.416Z,130.60
2023-02-04T21:54:27.243Z,120.37
2023-02-04T21:57:16.385Z,125.27
2023-02-04T22:00:06.148Z,118.63
2023-02-04T22:02:54.880Z,117.77
2023-02-04T22:05:43.848Z,122.77
2023-02-04T22:08:32.400Z,115.47
2023-02-04T22:11:22.237Z,120.93
2023-02-04T22:14:12.853Z,113.47
2023-02-04T22:17:01.334Z,110.10
2023-02-04T22:19:49.768Z,108.93
2023-02-04T22:22:38.246Z,112.97
2023-02-04T22:25:26.689Z,112.20
2023-02-04T22:28:16.593Z,100.50
2023-02-04T22:31:05.405Z,118.00
2023-02-04T22:33:54.237Z,108.17
2023-02-04T22:36:42.971Z,104.57
2023-02-04T22:39:31.696Z,107.57
2023-02-04T22:42:20.592Z,104.30
2023-02-04T22:45:11.386Z,94.93
2023-02-04T22:48:00.121Z,102.13
2023-02-04T22:50:48.865Z,114.27
2023-02-04T22:53:37.604Z,105.53
2023-02-04T22:56:26.401Z,97.63
2023-02-04T22:59:15.149Z,106.60
2023-02-04T23:02:05.362Z,92.17
2023-02-04T23:04:54.147Z,101.23
2023-02-04T23:07:42.869Z,97.83
2023-02-04T23:10:31.622Z,98.47
2023-02-04T23:13:20.512Z,96.13
2023-02-04T23:16:09.404Z,91.13
2023-02-04T23:18:59.263Z,95.43
2023-02-04T23:21:47.762Z,93.97
2023-02-04T23:24:36.739Z,99.83
2023-02-04T23:27:25.445Z,104.40
2023-02-04T23:30:16.357Z,105.40
2023-02-04T23:33:04.906Z,107.27
2023-02-04T23:35:54.748Z,109.03
2023-02-04T23:38:43.234Z,109.77
2023-02-04T23:41:31.928Z,102.53
2023-02-04T23:44:20.396Z,112.53
2023-02-04T23:47:08.992Z,119.20
2023-02-04T23:49:57.406Z,131.77
2023-02-04T23:52:47.236Z,133.67
2023-02-04T23:55:36.141Z,124.27
2023-02-04T23:58:24.824Z,110.77
